createdAt,value
2018-01-08T00:00:06.543Z,2.70
2018-01-08T00:02:34.071Z,2.70
2018-01-08T00:05:01.576Z,2.70
2018-01-08T00:07:29.106Z,2.70
2018-01-08T00:09:56.607Z,2.70
2018-01-08T00:12:24.899Z,2.80
2018-01-08T00:14:53.167Z,2.70
2018-01-08T00:17:21.468Z,2.70
2018-01-08T00:19:48.967Z,2.70
2018-01-08T00:22:16.497Z,2.70
2018-01-08T00:24:43.999Z,2.70
2018-01-08T00:27:11.528Z,2.80
2018-01-08T00:29:39.027Z,2.80
2018-01-08T00:32:06.555Z,2.80
2018-01-08T00:34:34.055Z,2.90
2018-01-08T00:37:02.362Z,2.70
2018-01-08T00:39:29.868Z,2.70
2018-01-08T00:41:57.375Z,2.70
2018-01-08T00:44:24.896Z,2.70
2018-01-08T00:46:52.397Z,2.70
2018-01-08T00:49:19.925Z,2.60
2018-01-08T00:51:48.198Z,2.60
2018-01-08T00:54:16.496Z,2.60
2018-01-08T00:56:44.765Z,2.60
2018-01-08T00:59:13.068Z,2.60
2018-01-08T01:01:40.574Z,2.60
2018-01-08T01:04:08.103Z,2.70
2018-01-08T01:06:35.608Z,2.60
2018-01-08T01:09:03.909Z,2.50
2018-01-08T01:11:31.441Z,2.50
2018-01-08T01:13:59.736Z,2.40
2018-01-08T01:16:27.240Z,2.40
2018-01-08T01:18:54.784Z,2.50
2018-01-08T01:21:22.295Z,2.40
2018-01-08T01:23:50.564Z,2.60
2018-01-08T01:26:18.083Z,2.50
2018-01-08T01:28:45.589Z,2.50
2018-01-08T01:31:13.891Z,2.60
2018-01-08T01:33:41.395Z,2.60
2018-01-08T01:36:08.900Z,2.60
2018-01-08T01:38:37.191Z,2.60
2018-01-08T01:41:04.694Z,2.60
2018-01-08T01:43:32.217Z,2.60
2018-01-08T01:45:59.716Z,2.60
2018-01-08T01:48:27.251Z,2.60
2018-01-08T01:50:54.747Z,2.60
2018-01-08T01:53:22.355Z,2.70
2018-01-08T01:55:49.887Z,2.70
2018-01-08T01:58:18.157Z,2.70
2018-01-08T02:00:46.447Z,2.80
2018-01-08T02:03:14.714Z,2.70
2018-01-08T02:05:43.004Z,2.60
2018-01-08T02:08:10.507Z,2.60
2018-01-08T02:10:38.038Z,2.70
2018-01-08T02:13:05.553Z,2.70
2018-01-08T02:15:33.079Z,2.80
2018-01-08T02:18:00.584Z,2.70
2018-01-08T02:20:28.879Z,2.70
2018-01-08T02:22:56.409Z,2.70
2018-01-08T02:25:23.908Z,2.60
2018-01-08T02:27:51.436Z,2.70
2018-01-08T02:30:19.729Z,2.90
2018-01-08T02:32:47.234Z,2.80
2018-01-08T02:35:15.596Z,2.80
2018-01-08T02:37:43.123Z,2.90
2018-01-08T02:40:10.630Z,2.90
2018-01-08T02:42:38.157Z,2.90
2018-01-08T02:45:05.661Z,2.90
2018-01-08T02:47:33.188Z,2.90
2018-01-08T02:50:00.700Z,2.80
2018-01-08T02:52:28.988Z,2.90
2018-01-08T02:54:57.251Z,2.90
2018-01-08T02:57:25.548Z,2.90
2018-01-08T02:59:53.050Z,2.90
2018-01-08T03:02:20.584Z,2.90
2018-01-08T03:04:48.092Z,2.90
2018-01-08T03:07:15.614Z,3.00
2018-01-08T03:09:43.109Z,3.00
2018-01-08T03:12:10.652Z,3.00
2018-01-08T03:14:38.156Z,2.90
2018-01-08T03:17:06.422Z,3.00
2018-01-08T03:19:34.714Z,3.10
2018-01-08T03:22:02.229Z,3.10
2018-01-08T03:24:29.762Z,3.10
2018-01-08T03:26:57.263Z,3.20
2018-01-08T03:29:24.791Z,3.00
2018-01-08T03:31:53.055Z,3.00
2018-01-08T03:34:20.587Z,3.00
2018-01-08T03:36:48.087Z,3.00
2018-01-08T03:39:15.588Z,3.00
2018-01-08T03:41:43.882Z,3.00
2018-01-08T03:44:11.386Z,3.00
2018-01-08T03:46:39.015Z,3.20
2018-01-08T03:49:06.543Z,3.10
2018-01-08T03:51:34.813Z,3.10
2018-01-08T03:54:03.107Z,3.10
2018-01-08T03:56:31.370Z,3.10
2018-01-08T03:58:59.662Z,3.20
2018-01-08T04:01:27.192Z,3.10
2018-01-08T04:03:54.733Z,3.10
2018-01-08T04:06:22.260Z,3.00
2018-01-08T04:08:49.770Z,3.00
2018-01-08T04:11:17.296Z,3.00
2018-01-08T04:13:45.590Z,2.90
2018-01-08T04:16:13.091Z,2.90
2018-01-08T04:18:41.384Z,3.00
2018-01-08T04:21:08.937Z,3.00
2018-01-08T04:23:36.435Z,3.10
2018-01-08T04:26:04.707Z,3.10
2018-01-08T04:28:32.247Z,3.10
2018-01-08T04:30:59.747Z,3.10
2018-01-08T04:33:27.257Z,3.10
2018-01-08T04:35:54.786Z,3.10
2018-01-08T04:38:23.059Z,3.00
2018-01-08T04:40:51.346Z,3.00
2018-01-08T04:43:19.752Z,3.00
2018-01-08T04:45:47.250Z,3.00
2018-01-08T04:48:14.748Z,3.10
2018-01-08T04:50:43.041Z,3.20
2018-01-08T04:53:10.570Z,3.20
2018-01-08T04:55:38.862Z,3.30
2018-01-08T04:58:07.132Z,3.30
2018-01-08T05:00:35.423Z,3.30
2018-01-08T05:03:02.927Z,3.30
2018-01-08T05:05:30.452Z,3.40
2018-01-08T05:07:57.981Z,3.40
2018-01-08T05:10:26.248Z,3.40
2018-01-08T05:12:54.538Z,3.50
2018-01-08T05:15:22.802Z,3.50
2018-01-08T05:17:51.096Z,3.50
2018-01-08T05:20:19.364Z,3.50
2018-01-08T05:22:47.651Z,3.50
2018-01-08T05:25:15.156Z,3.50
2018-01-08T05:27:42.679Z,3.50
2018-01-08T05:30:10.205Z,3.50
2018-01-08T05:32:37.708Z,3.50
2018-01-08T05:35:05.236Z,3.60
2018-01-08T05:37:33.503Z,3.50
2018-01-08T05:40:01.800Z,3.50
2018-01-08T05:42:29.307Z,3.50
2018-01-08T05:44:56.831Z,3.50
2018-01-08T05:47:24.335Z,3.50
2018-01-08T05:49:51.862Z,3.50
2018-01-08T05:52:19.359Z,3.50
2018-01-08T05:54:46.891Z,3.50
2018-01-08T05:57:14.399Z,3.40
2018-01-08T05:59:42.677Z,3.40
2018-01-08T06:02:10.980Z,3.40
2018-01-08T06:04:38.482Z,3.40
2018-01-08T06:07:06.004Z,3.50
2018-01-08T06:09:33.506Z,3.50
2018-01-08T06:12:01.031Z,3.50
2018-01-08T06:14:28.531Z,3.50
2018-01-08T06:16:56.055Z,3.50
2018-01-08T06:19:23.562Z,3.40
2018-01-08T06:21:51.917Z,3.40
2018-01-08T06:24:19.423Z,3.40
2018-01-08T06:26:46.952Z,3.40
2018-01-08T06:29:15.264Z,3.40
2018-01-08T06:31:42.762Z,3.40
2018-01-08T06:34:10.297Z,3.40
2018-01-08T06:36:37.831Z,3.40
2018-01-08T06:39:05.353Z,3.50
2018-01-08T06:41:32.864Z,3.50
2018-01-08T06:44:00.386Z,3.40
2018-01-08T06:46:28.655Z,3.50
2018-01-08T06:48:56.183Z,3.50
2018-01-08T06:51:23.710Z,3.50
2018-01-08T06:53:51.243Z,3.50
2018-01-08T06:56:19.540Z,3.50
2018-01-08T06:58:47.039Z,3.50
2018-01-08T07:01:14.574Z,3.50
2018-01-08T07:03:42.073Z,3.50
2018-01-08T07:06:09.571Z,3.50
2018-01-08T07:08:37.105Z,3.60
2018-01-08T07:11:04.635Z,3.60
2018-01-08T07:13:32.164Z,3.60
2018-01-08T07:16:00.692Z,3.60
2018-01-08T07:18:28.234Z,3.60
2018-01-08T07:20:55.734Z,3.60
2018-01-08T07:23:23.265Z,3.60
2018-01-08T07:25:50.799Z,3.60
2018-01-08T07:28:18.301Z,3.60
2018-01-08T07:30:46.585Z,3.60
2018-01-08T07:33:14.884Z,3.60
2018-01-08T07:35:42.383Z,3.60
2018-01-08T07:38:09.896Z,3.60
2018-01-08T07:40:37.431Z,3.60
2018-01-08T07:43:05.725Z,3.60
2018-01-08T07:45:34.017Z,3.60
2018-01-08T07:48:01.525Z,3.60
2018-01-08T07:50:29.054Z,3.60
2018-01-08T07:52:56.553Z,3.60
2018-01-08T07:55:24.078Z,3.60
2018-01-08T07:57:51.588Z,3.60
2018-01-08T08:00:19.859Z,3.60
2018-01-08T08:02:48.156Z,3.60
2018-01-08T08:05:15.682Z,3.60
2018-01-08T08:07:43.206Z,3.60
2018-01-08T08:10:10.708Z,3.60
2018-01-08T08:12:39.007Z,3.60
2018-01-08T08:15:07.271Z,3.60
2018-01-08T08:17:35.560Z,3.60
2018-01-08T08:20:03.086Z,3.60
2018-01-08T08:22:30.612Z,3.60
2018-01-08T08:24:58.117Z,3.60
2018-01-08T08:27:26.414Z,3.60
2018-01-08T08:29:53.931Z,3.60
2018-01-08T08:32:21.462Z,3.60
2018-01-08T08:34:48.986Z,3.60
2018-01-08T08:37:17.282Z,3.50
2018-01-08T08:39:44.792Z,3.50
2018-01-08T08:42:12.316Z,3.50
2018-01-08T08:44:39.839Z,3.60
2018-01-08T08:47:08.102Z,3.60
2018-01-08T08:49:36.399Z,3.50
2018-01-08T08:52:03.898Z,3.50
2018-01-08T08:54:32.191Z,3.50
2018-01-08T08:56:59.692Z,3.60
2018-01-08T08:59:28.007Z,3.60
2018-01-08T09:01:55.539Z,3.60
2018-01-08T09:04:23.043Z,3.60
2018-01-08T09:06:50.568Z,3.60
2018-01-08T09:09:18.075Z,3.70
2018-01-08T09:11:45.623Z,3.60
2018-01-08T09:14:13.131Z,3.60
2018-01-08T09:16:40.631Z,3.60
2018-01-08T09:19:08.165Z,3.60
2018-01-08T09:21:35.691Z,3.70
2018-01-08T09:24:03.979Z,3.70
2018-01-08T09:26:31.478Z,3.70
2018-01-08T09:28:59.003Z,3.70
2018-01-08T09:31:26.507Z,3.70
2018-01-08T09:33:54.043Z,3.70
2018-01-08T09:36:21.542Z,3.70
2018-01-08T09:38:49.056Z,3.70
2018-01-08T09:41:16.583Z,3.70
2018-01-08T09:43:44.847Z,3.80
2018-01-08T09:46:13.138Z,3.80
2018-01-08T09:48:41.406Z,3.80
2018-01-08T09:51:09.708Z,3.80
2018-01-08T09:53:37.219Z,3.80
2018-01-08T09:56:04.742Z,3.80
2018-01-08T09:58:32.240Z,3.80
2018-01-08T10:00:59.783Z,3.80
2018-01-08T10:03:39.208Z,3.90
2018-01-08T10:06:18.405Z,3.80
2018-01-08T10:08:57.787Z,3.80
2018-01-08T10:11:37.103Z,3.90
2018-01-08T10:14:16.445Z,3.90
2018-01-08T10:16:55.791Z,4.00
2018-01-08T10:19:35.103Z,4.00
2018-01-08T10:22:02.648Z,4.10
2018-01-08T10:24:30.173Z,4.10
2018-01-08T10:26:57.680Z,4.20
2018-01-08T10:29:25.216Z,4.20
2018-01-08T10:31:53.487Z,4.10
2018-01-08T10:34:21.756Z,4.20
2018-01-08T10:36:50.047Z,4.20
2018-01-08T10:39:17.559Z,4.20
2018-01-08T10:41:50.800Z,4.20
2018-01-08T10:44:23.828Z,4.20
2018-01-08T10:46:57.117Z,4.20
2018-01-08T10:49:30.315Z,4.20
2018-01-08T10:51:57.351Z,4.30
2018-01-08T10:57:27.499Z,4.30
2018-01-08T10:59:55.267Z,4.30
2018-01-08T11:02:28.427Z,4.30
2018-01-08T11:04:55.935Z,4.30
2018-01-08T11:07:23.466Z,4.30
2018-01-08T11:09:50.998Z,4.30
2018-01-08T11:12:18.550Z,4.30
2018-01-08T11:14:46.091Z,4.30
2018-01-08T11:17:13.615Z,4.30
2018-01-08T11:19:41.148Z,4.30
2018-01-08T11:22:08.664Z,4.30
2018-01-08T11:24:36.987Z,4.30
2018-01-08T11:27:04.501Z,4.30
2018-01-08T11:29:33.059Z,4.30
2018-01-08T11:32:00.571Z,4.40
2018-01-08T11:34:28.114Z,4.40
2018-01-08T11:36:55.622Z,4.40
2018-01-08T11:39:23.137Z,4.40
2018-01-08T11:41:50.688Z,4.40
2018-01-08T11:44:18.191Z,4.40
2018-01-08T11:46:45.696Z,4.40
2018-01-08T11:49:13.250Z,4.40
2018-01-08T11:51:40.803Z,4.30
2018-01-08T11:54:08.355Z,4.30
2018-01-08T11:56:35.919Z,4.40
2018-01-08T11:59:03.787Z,4.40
2018-01-08T12:01:32.141Z,4.50
2018-01-08T12:03:59.647Z,4.50
2018-01-08T12:06:27.956Z,4.50
2018-01-08T12:08:56.224Z,4.60
2018-01-08T12:11:23.730Z,4.50
2018-01-08T12:13:51.270Z,4.60
2018-01-08T12:16:18.772Z,4.60
2018-01-08T12:18:46.307Z,4.50
2018-01-08T12:21:14.626Z,4.60
2018-01-08T12:23:42.154Z,4.60
2018-01-08T12:26:09.660Z,4.60
2018-01-08T12:28:37.963Z,4.70
2018-01-08T12:31:05.494Z,4.70
2018-01-08T12:33:33.035Z,4.70
2018-01-08T12:36:00.539Z,4.70
2018-01-08T12:38:29.083Z,4.70
2018-01-08T12:40:56.627Z,4.90
2018-01-08T12:43:24.908Z,4.80
2018-01-08T12:45:53.188Z,4.90
2018-01-08T12:48:20.716Z,4.90
2018-01-08T12:50:48.228Z,4.90
2018-01-08T12:53:15.763Z,4.90
2018-01-08T12:55:43.271Z,5.00
2018-01-08T12:58:10.826Z,5.00
2018-01-08T13:00:38.339Z,5.00
2018-01-08T13:03:05.873Z,5.00
2018-01-08T13:05:33.398Z,5.00
2018-01-08T13:08:00.929Z,5.10
2018-01-08T13:10:28.427Z,5.10
2018-01-08T13:12:55.966Z,5.10
2018-01-08T13:15:23.462Z,5.00
2018-01-08T13:17:51.002Z,5.00
2018-01-08T13:20:18.550Z,5.00
2018-01-08T13:22:46.062Z,5.00
2018-01-08T13:25:13.601Z,5.00
2018-01-08T13:27:41.102Z,5.00
2018-01-08T13:30:08.647Z,5.00
2018-01-08T13:32:36.174Z,5.10
2018-01-08T13:35:03.729Z,5.10
2018-01-08T13:37:31.998Z,5.00
2018-01-08T13:39:59.511Z,5.00
2018-01-08T13:42:27.048Z,5.00
2018-01-08T13:44:54.604Z,5.10
2018-01-08T13:47:22.182Z,5.00
2018-01-08T13:49:49.692Z,5.00
2018-01-08T13:52:17.221Z,4.90
2018-01-08T13:54:44.747Z,5.00
2018-01-08T13:57:12.269Z,5.00
2018-01-08T13:59:39.798Z,4.90
2018-01-08T14:02:07.364Z,4.90
2018-01-08T14:04:34.920Z,5.00
2018-01-08T14:07:02.428Z,4.90
2018-01-08T14:09:29.941Z,4.90
2018-01-08T14:11:58.246Z,4.90
2018-01-08T14:14:26.525Z,4.90
2018-01-08T14:16:54.829Z,4.90
2018-01-08T14:19:22.333Z,4.90
2018-01-08T14:21:49.845Z,4.90
2018-01-08T14:24:17.391Z,4.90
2018-01-08T14:26:44.953Z,4.90
2018-01-08T14:29:12.460Z,4.90
2018-01-08T14:31:40.787Z,4.90
2018-01-08T14:34:08.295Z,4.90
2018-01-08T14:36:35.835Z,4.90
2018-01-08T14:39:03.371Z,4.90
2018-01-08T14:41:31.737Z,4.90
2018-01-08T14:43:59.274Z,4.80
2018-01-08T14:46:26.788Z,4.90
2018-01-08T14:48:54.318Z,4.90
2018-01-08T14:51:21.823Z,4.90
2018-01-08T14:53:49.352Z,4.90
2018-01-08T14:56:16.862Z,4.80
2018-01-08T14:58:44.391Z,4.80
2018-01-08T15:01:11.895Z,4.80
2018-01-08T15:03:39.426Z,4.80
2018-01-08T15:06:06.968Z,4.80
2018-01-08T15:08:35.244Z,4.80
2018-01-08T15:11:02.774Z,4.80
2018-01-08T15:13:30.278Z,4.80
2018-01-08T15:15:57.811Z,4.80
2018-01-08T15:18:25.321Z,4.80
2018-01-08T15:20:52.855Z,4.80
2018-01-08T15:23:20.364Z,4.80
2018-01-08T15:25:47.899Z,4.70
2018-01-08T15:28:15.462Z,4.80
2018-01-08T15:30:42.991Z,4.70
2018-01-08T15:33:10.495Z,4.80
2018-01-08T15:35:38.071Z,4.90
2018-01-08T15:38:05.627Z,4.90
2018-01-08T15:40:33.134Z,4.90
2018-01-08T15:43:00.699Z,4.90
2018-01-08T15:45:28.218Z,4.90
2018-01-08T15:47:55.762Z,4.80
2018-01-08T15:50:24.059Z,4.80
2018-01-08T15:52:51.577Z,4.80
2018-01-08T15:55:19.158Z,4.80
2018-01-08T15:57:46.751Z,4.80
2018-01-08T16:00:14.318Z,4.80
2018-01-08T16:02:41.880Z,4.80
2018-01-08T16:05:09.432Z,4.80
2018-01-08T16:07:37.751Z,4.80
2018-01-08T16:10:05.275Z,4.80
2018-01-08T16:12:32.839Z,4.80
2018-01-08T16:15:00.360Z,4.80
2018-01-08T16:17:28.134Z,4.80
2018-01-08T16:19:55.779Z,4.80
2018-01-08T16:22:24.216Z,4.70
2018-01-08T16:24:51.739Z,4.70
2018-01-08T16:27:19.271Z,4.70
2018-01-08T16:29:46.826Z,4.70
2018-01-08T16:32:14.922Z,4.70
2018-01-08T16:34:43.251Z,4.80
2018-01-08T16:37:11.574Z,4.70
2018-01-08T16:39:39.138Z,4.70
2018-01-08T16:42:06.709Z,4.80
2018-01-08T16:44:34.331Z,4.70
2018-01-08T16:47:01.889Z,4.70
2018-01-08T16:49:29.506Z,4.70
2018-01-08T16:51:57.171Z,4.70
2018-01-08T16:54:25.490Z,4.70
2018-01-08T16:56:53.030Z,4.70
2018-01-08T16:59:20.553Z,4.70
2018-01-08T17:01:48.145Z,4.60
2018-01-08T17:04:15.721Z,4.60
2018-01-08T17:06:43.320Z,4.70
2018-01-08T17:09:10.870Z,4.70
2018-01-08T17:11:38.384Z,4.60
2018-01-08T17:14:06.083Z,4.60
2018-01-08T17:16:33.645Z,4.50
2018-01-08T17:19:01.271Z,4.50
2018-01-08T17:21:28.775Z,4.40
2018-01-08T17:23:56.344Z,4.40
2018-01-08T17:26:24.408Z,4.50
2018-01-08T17:28:51.912Z,4.50
2018-01-08T17:31:20.241Z,4.50
2018-01-08T17:33:47.785Z,4.40
2018-01-08T17:36:15.313Z,4.40
2018-01-08T17:38:42.828Z,4.40
2018-01-08T17:41:10.355Z,4.40
2018-01-08T17:43:37.884Z,4.40
2018-01-08T17:46:05.432Z,4.40
2018-01-08T17:48:32.971Z,4.40
2018-01-08T17:51:00.490Z,4.30
2018-01-08T17:53:28.023Z,4.40
2018-01-08T17:55:55.555Z,4.30
2018-01-08T17:58:23.081Z,4.30
2018-01-08T18:00:51.486Z,4.40
2018-01-08T18:03:19.026Z,4.40
2018-01-08T18:05:46.561Z,4.40
2018-01-08T18:08:16.007Z,4.50
2018-01-08T18:10:43.546Z,4.40
2018-01-08T18:13:11.084Z,4.50
2018-01-08T18:15:38.584Z,4.40
2018-01-08T18:18:06.118Z,4.40
2018-01-08T18:20:33.653Z,4.40
2018-01-08T18:23:01.190Z,4.40
2018-01-08T18:25:28.730Z,4.40
2018-01-08T18:27:57.042Z,4.40
2018-01-08T18:30:24.547Z,4.40
2018-01-08T18:32:52.076Z,4.40
2018-01-08T18:35:19.618Z,4.40
2018-01-08T18:37:47.223Z,4.50
2018-01-08T18:40:14.730Z,4.50
2018-01-08T18:42:43.059Z,4.40
2018-01-08T18:45:10.594Z,4.40
2018-01-08T18:47:38.099Z,4.50
2018-01-08T18:50:06.623Z,4.40
2018-01-08T18:52:34.138Z,4.40
2018-01-08T18:55:01.704Z,4.40
2018-01-08T18:57:29.256Z,4.40
2018-01-08T18:59:56.768Z,4.50
2018-01-08T19:02:28.363Z,4.50
2018-01-08T19:04:56.667Z,4.60
2018-01-08T19:07:24.194Z,4.50
2018-01-08T19:09:51.753Z,4.60
2018-01-08T19:12:20.083Z,4.60
2018-01-08T19:14:48.380Z,4.60
2018-01-08T19:17:15.882Z,4.60
2018-01-08T19:19:43.407Z,4.60
2018-01-08T19:22:10.931Z,4.60
2018-01-08T19:24:38.468Z,4.60
2018-01-08T19:27:05.988Z,4.60
2018-01-08T19:29:34.315Z,4.60
2018-01-08T19:32:02.599Z,4.60
2018-01-08T19:34:30.936Z,4.60
2018-01-08T19:36:59.486Z,4.60
2018-01-08T19:39:27.021Z,4.70
2018-01-08T19:41:54.559Z,4.60
2018-01-08T19:44:22.085Z,4.60
2018-01-08T19:46:49.625Z,4.60
2018-01-08T19:49:17.131Z,4.60
2018-01-08T19:51:44.662Z,4.60
2018-01-08T19:54:12.183Z,4.70
2018-01-08T19:56:40.498Z,4.70
2018-01-08T19:59:08.130Z,4.70
2018-01-08T20:01:35.640Z,4.70
2018-01-08T20:04:03.191Z,4.70
2018-01-08T20:06:31.499Z,4.70
2018-01-08T20:08:59.077Z,4.70
2018-01-08T20:11:26.630Z,4.80
2018-01-08T20:13:54.923Z,4.70
2018-01-08T20:16:23.204Z,4.70
2018-01-08T20:18:51.495Z,4.70
2018-01-08T20:21:19.760Z,4.70
2018-01-08T20:23:47.301Z,4.70
2018-01-08T20:26:14.815Z,4.80
2018-01-08T20:28:42.328Z,4.80
2018-01-08T20:31:09.888Z,4.80
2018-01-08T20:33:37.414Z,4.80
2018-01-08T20:36:04.927Z,4.80
2018-01-08T20:38:33.227Z,4.80
2018-01-08T20:41:00.750Z,4.80
2018-01-08T20:43:28.307Z,4.80
2018-01-08T20:45:55.828Z,4.80
2018-01-08T20:48:24.122Z,4.80
2018-01-08T20:50:51.652Z,4.80
2018-01-08T20:53:19.164Z,4.80
2018-01-08T20:55:46.703Z,4.80
2018-01-08T20:58:14.217Z,4.80
2018-01-08T21:00:41.722Z,4.90
2018-01-08T21:03:09.267Z,4.80
2018-01-08T21:05:36.781Z,4.70
2018-01-08T21:08:04.331Z,4.80
2018-01-08T21:10:31.840Z,4.80
2018-01-08T21:12:59.374Z,4.80
2018-01-08T21:15:26.899Z,4.80
2018-01-08T21:17:55.195Z,4.70
2018-01-08T21:20:22.728Z,4.70
2018-01-08T21:22:50.239Z,4.70
2018-01-08T21:25:17.768Z,4.60
2018-01-08T21:27:45.276Z,4.50
2018-01-08T21:30:13.579Z,4.40
2018-01-08T21:32:41.095Z,4.30
2018-01-08T21:35:08.627Z,4.30
2018-01-08T21:37:36.171Z,4.30
2018-01-08T21:40:04.468Z,4.30
2018-01-08T21:42:32.738Z,4.30
2018-01-08T21:45:00.269Z,4.30
2018-01-08T21:47:27.790Z,4.40
2018-01-08T21:49:56.054Z,4.50
2018-01-08T21:52:23.578Z,4.50
2018-01-08T21:54:51.084Z,4.40
2018-01-08T21:57:18.611Z,4.30
2018-01-08T21:59:46.143Z,4.10
2018-01-08T22:02:13.675Z,4.00
2018-01-08T22:04:41.207Z,3.90
2018-01-08T22:07:09.472Z,3.80
2018-01-08T22:09:37.006Z,3.80
2018-01-08T22:12:04.515Z,3.70
2018-01-08T22:14:32.039Z,3.70
2018-01-08T22:16:59.588Z,3.70
2018-01-08T22:19:27.882Z,3.60
2018-01-08T22:21:55.407Z,3.60
2018-01-08T22:24:22.931Z,3.60
2018-01-08T22:26:50.459Z,3.50
2018-01-08T22:29:17.963Z,3.50
2018-01-08T22:31:45.501Z,3.50
2018-01-08T22:34:13.006Z,3.50
2018-01-08T22:36:41.311Z,3.40
2018-01-08T22:39:08.818Z,3.40
2018-01-08T22:41:36.348Z,3.30
2018-01-08T22:44:03.863Z,3.30
2018-01-08T22:46:31.402Z,3.30
2018-01-08T22:48:58.913Z,3.30
2018-01-08T22:51:26.430Z,3.30
2018-01-08T22:53:53.958Z,3.20
2018-01-08T22:56:21.466Z,3.30
2018-01-08T22:58:49.002Z,3.30
2018-01-08T23:01:16.534Z,3.30
2018-01-08T23:03:44.085Z,3.20
2018-01-08T23:06:11.603Z,3.20
2018-01-08T23:08:39.138Z,3.20
2018-01-08T23:11:06.679Z,3.20
2018-01-08T23:13:34.596Z,3.20
2018-01-08T23:16:02.115Z,3.20
2018-01-08T23:18:29.755Z,3.20
2018-01-08T23:20:57.256Z,3.20
2018-01-08T23:23:24.791Z,3.20
2018-01-08T23:25:52.293Z,3.20
2018-01-08T23:28:19.843Z,3.30
2018-01-08T23:30:47.342Z,3.30
2018-01-08T23:33:14.897Z,3.20
2018-01-08T23:35:42.411Z,3.30
2018-01-08T23:38:10.738Z,3.20
2018-01-08T23:40:38.282Z,3.20
2018-01-08T23:43:05.817Z,3.20
2018-01-08T23:45:33.339Z,3.10
2018-01-08T23:48:00.872Z,3.00
2018-01-08T23:50:28.396Z,3.10
2018-01-08T23:52:55.936Z,3.10
2018-01-08T23:55:24.213Z,3.00
2018-01-08T23:57:51.792Z,3.00
